createdAt,value
2022-12-09T00:00:29.982Z,-0.30
2022-12-09T00:02:58.159Z,-0.30
2022-12-09T00:05:25.195Z,-0.30
2022-12-09T00:07:52.262Z,-0.30
2022-12-09T00:10:19.364Z,-0.30
2022-12-09T00:12:46.382Z,-0.30
2022-12-09T00:15:13.548Z,-0.30
2022-12-09T00:17:40.540Z,-0.30
2022-12-09T00:20:08.414Z,-0.30
2022-12-09T00:22:35.595Z,-0.30
2022-12-09T00:25:02.732Z,-0.30
2022-12-09T00:27:29.796Z,-0.30
2022-12-09T00:29:56.759Z,-0.30
2022-12-09T00:32:23.770Z,-0.40
2022-12-09T00:34:50.951Z,-0.30
2022-12-09T00:37:18.157Z,-0.30
2022-12-09T00:39:45.840Z,-0.40
2022-12-09T00:42:12.828Z,-0.40
2022-12-09T00:44:39.893Z,-0.40
2022-12-09T00:47:07.215Z,-0.50
2022-12-09T00:49:34.281Z,-0.50
2022-12-09T00:52:01.255Z,-0.50
2022-12-09T00:54:28.291Z,-0.50
2022-12-09T00:56:57.091Z,-0.50
2022-12-09T00:59:24.124Z,-0.50
2022-12-09T01:01:51.426Z,-0.50
2022-12-09T01:04:20.083Z,-0.60
2022-12-09T01:06:47.143Z,-0.60
2022-12-09T01:09:14.295Z,-0.60
2022-12-09T01:11:41.309Z,-0.60
2022-12-09T01:14:08.391Z,-0.60
2022-12-09T01:16:35.801Z,-0.60
2022-12-09T01:19:04.239Z,-0.60
2022-12-09T01:21:31.633Z,-0.70
2022-12-09T01:23:58.727Z,-0.70
2022-12-09T01:26:25.740Z,-0.70
2022-12-09T01:28:55.333Z,-0.70
2022-12-09T01:31:23.135Z,-0.80
2022-12-09T01:33:50.528Z,-0.80
2022-12-09T01:36:18.759Z,-0.80
2022-12-09T01:38:45.961Z,-0.80
2022-12-09T01:41:13.395Z,-0.80
2022-12-09T01:43:41.423Z,-0.90
2022-12-09T01:46:08.700Z,-0.90
2022-12-09T01:48:43.357Z,-0.90
2022-12-09T01:51:13.371Z,-0.90
2022-12-09T01:53:41.592Z,-0.90
2022-12-09T01:56:10.707Z,-0.90
2022-12-09T01:58:37.976Z,-1.00
2022-12-09T02:01:05.991Z,-1.00
2022-12-09T02:03:34.373Z,-1.00
2022-12-09T02:06:01.941Z,-1.00
2022-12-09T02:08:29.096Z,-1.00
2022-12-09T02:11:08.505Z,-1.00
2022-12-09T02:13:51.150Z,-1.10
2022-12-09T02:16:20.026Z,-1.10
2022-12-09T02:18:47.168Z,-1.10
2022-12-09T02:21:16.706Z,-1.10
2022-12-09T02:23:59.500Z,-1.10
2022-12-09T02:26:29.786Z,-1.10
2022-12-09T02:28:57.000Z,-1.10
2022-12-09T02:31:27.551Z,-1.10
2022-12-09T02:33:55.334Z,-1.10
2022-12-09T02:36:22.657Z,-1.10
2022-12-09T02:38:51.218Z,-1.10
2022-12-09T02:41:19.604Z,-1.10
2022-12-09T02:43:50.762Z,-1.10
2022-12-09T02:46:22.902Z,-1.10
2022-12-09T02:48:54.136Z,-1.00
2022-12-09T02:51:21.307Z,-1.00
2022-12-09T02:53:49.142Z,-1.00
2022-12-09T02:56:17.501Z,-1.00
2022-12-09T02:58:44.787Z,-1.00
2022-12-09T03:01:23.985Z,-1.00
2022-12-09T03:03:51.174Z,-1.00
2022-12-09T03:06:18.528Z,-1.00
2022-12-09T03:09:05.821Z,-1.00
2022-12-09T03:11:33.587Z,-1.00
2022-12-09T03:14:02.379Z,-1.00
2022-12-09T03:16:39.143Z,-1.00
2022-12-09T03:19:25.328Z,-1.00
2022-12-09T03:21:53.529Z,-1.00
2022-12-09T03:24:21.696Z,-1.00
2022-12-09T03:26:48.668Z,-1.00
2022-12-09T03:29:19.931Z,-1.00
2022-12-09T03:31:47.111Z,-1.00
2022-12-09T03:34:15.753Z,-1.00
2022-12-09T03:36:42.977Z,-1.10
2022-12-09T03:39:11.125Z,-1.10
2022-12-09T03:41:38.677Z,-1.10
2022-12-09T03:44:08.705Z,-1.10
2022-12-09T03:46:36.150Z,-1.00
2022-12-09T03:49:03.191Z,-1.10
2022-12-09T03:51:33.462Z,-1.10
2022-12-09T03:54:02.018Z,-1.10
2022-12-09T03:56:30.589Z,-1.10
2022-12-09T03:58:57.973Z,-1.10
2022-12-09T04:01:25.235Z,-1.10
2022-12-09T04:03:53.203Z,-1.10
2022-12-09T04:06:20.769Z,-1.10
2022-12-09T04:08:47.997Z,-1.10
2022-12-09T04:11:15.197Z,-1.10
2022-12-09T04:13:42.232Z,-1.10
2022-12-09T04:16:10.035Z,-1.00
2022-12-09T04:18:37.250Z,-1.00
2022-12-09T04:21:07.939Z,-1.10
2022-12-09T04:23:39.328Z,-1.00
2022-12-09T04:26:13.130Z,-1.10
2022-12-09T04:28:40.487Z,-1.10
2022-12-09T04:31:17.293Z,-1.10
2022-12-09T04:33:44.443Z,-1.10
2022-12-09T04:36:12.452Z,-1.00
2022-12-09T04:38:39.740Z,-1.00
2022-12-09T04:41:06.776Z,-1.00
2022-12-09T04:43:34.427Z,-1.00
2022-12-09T04:46:02.450Z,-1.00
2022-12-09T04:48:29.635Z,-1.00
2022-12-09T04:50:56.675Z,-1.00
2022-12-09T04:53:23.708Z,-1.00
2022-12-09T04:55:58.005Z,-1.00
2022-12-09T04:58:24.959Z,-1.00
2022-12-09T05:00:52.186Z,-1.00
2022-12-09T05:03:19.654Z,-1.00
2022-12-09T05:05:47.198Z,-1.00
2022-12-09T05:08:14.433Z,-1.00
2022-12-09T05:10:45.410Z,-1.00
2022-12-09T05:13:12.540Z,-0.90
2022-12-09T05:15:40.243Z,-0.90
2022-12-09T05:18:07.477Z,-0.90
2022-12-09T05:20:34.845Z,-0.90
2022-12-09T05:23:07.504Z,-0.90
2022-12-09T05:25:36.261Z,-0.80
2022-12-09T05:28:03.879Z,-0.80
2022-12-09T05:30:31.233Z,-0.80
2022-12-09T05:32:58.491Z,-0.70
2022-12-09T05:35:25.801Z,-0.70
2022-12-09T05:37:53.785Z,-0.70
2022-12-09T05:40:21.146Z,-0.80
2022-12-09T05:42:48.545Z,-0.80
2022-12-09T05:45:15.606Z,-0.70
2022-12-09T05:47:42.891Z,-0.80
2022-12-09T05:50:10.636Z,-0.70
2022-12-09T05:52:38.619Z,-0.70
2022-12-09T05:55:06.372Z,-0.70
2022-12-09T05:57:33.715Z,-0.80
2022-12-09T06:00:00.873Z,-0.80
2022-12-09T06:02:27.986Z,-0.80
2022-12-09T06:04:55.663Z,-0.80
2022-12-09T06:07:23.458Z,-0.80
2022-12-09T06:09:51.087Z,-0.80
2022-12-09T06:12:18.208Z,-0.80
2022-12-09T06:14:45.407Z,-0.80
2022-12-09T06:17:12.814Z,-0.80
2022-12-09T06:19:40.106Z,-0.80
2022-12-09T06:22:07.227Z,-0.80
2022-12-09T06:24:34.625Z,-0.80
2022-12-09T06:27:02.155Z,-0.80
2022-12-09T06:29:29.553Z,-0.70
2022-12-09T06:31:56.933Z,-0.70
2022-12-09T06:34:24.571Z,-0.70
2022-12-09T06:36:51.998Z,-0.70
2022-12-09T06:39:19.463Z,-0.70
2022-12-09T06:41:46.711Z,-0.70
2022-12-09T06:44:19.912Z,-0.70
2022-12-09T06:46:50.360Z,-0.70
2022-12-09T06:49:18.064Z,-0.70
2022-12-09T06:51:45.543Z,-0.70
2022-12-09T06:54:13.405Z,-0.70
2022-12-09T06:56:40.602Z,-0.70
2022-12-09T06:59:08.525Z,-0.70
2022-12-09T07:01:35.868Z,-0.70
2022-12-09T07:04:03.662Z,-0.70
2022-12-09T07:06:49.713Z,-0.70
2022-12-09T07:09:18.053Z,-0.70
2022-12-09T07:11:48.894Z,-0.70
2022-12-09T07:14:16.297Z,-0.70
2022-12-09T07:16:43.906Z,-0.60
2022-12-09T07:19:21.333Z,-0.60
2022-12-09T07:21:49.402Z,-0.60
2022-12-09T07:24:18.508Z,-0.60
2022-12-09T07:26:45.814Z,-0.60
2022-12-09T07:29:12.964Z,-0.60
2022-12-09T07:31:40.527Z,-0.60
2022-12-09T07:34:07.779Z,-0.60
2022-12-09T07:36:35.785Z,-0.60
2022-12-09T07:39:13.327Z,-0.50
2022-12-09T07:41:40.690Z,-0.50
2022-12-09T07:44:08.045Z,-0.50
2022-12-09T07:46:35.595Z,-0.50
2022-12-09T07:49:03.639Z,-0.50
2022-12-09T07:51:31.399Z,-0.50
2022-12-09T07:53:58.725Z,-0.50
2022-12-09T07:56:27.663Z,-0.50
2022-12-09T07:58:55.366Z,-0.50
2022-12-09T08:01:29.393Z,-0.50
2022-12-09T08:03:56.704Z,-0.50
2022-12-09T08:06:24.849Z,-0.50
2022-12-09T08:08:52.811Z,-0.50
2022-12-09T08:11:24.447Z,-0.40
2022-12-09T08:13:51.761Z,-0.40
2022-12-09T08:16:19.782Z,-0.40
2022-12-09T08:18:47.367Z,-0.40
2022-12-09T08:21:16.718Z,-0.40
2022-12-09T08:23:44.151Z,-0.40
2022-12-09T08:26:11.985Z,-0.40
2022-12-09T08:28:39.542Z,-0.30
2022-12-09T08:31:07.768Z,-0.30
2022-12-09T08:33:35.635Z,-0.30
2022-12-09T08:36:03.284Z,-0.30
2022-12-09T08:38:31.953Z,-0.20
2022-12-09T08:40:59.136Z,-0.20
2022-12-09T08:43:26.417Z,-0.20
2022-12-09T08:45:53.939Z,-0.10
2022-12-09T08:48:21.370Z,-0.10
2022-12-09T08:50:48.683Z,-0.10
2022-12-09T08:53:16.059Z,-0.10
2022-12-09T08:58:24.386Z,0.00
2022-12-09T09:00:51.650Z,0.00
2022-12-09T09:03:19.133Z,0.00
2022-12-09T09:05:46.486Z,0.00
2022-12-09T09:08:14.248Z,0.00
2022-12-09T09:10:41.573Z,-0.10
2022-12-09T09:13:08.988Z,0.00
2022-12-09T09:15:38.875Z,0.00
2022-12-09T09:18:06.261Z,-0.10
2022-12-09T09:20:33.599Z,0.00
2022-12-09T09:23:03.398Z,0.00
2022-12-09T09:25:31.309Z,0.00
2022-12-09T09:27:58.461Z,-0.10
2022-12-09T09:30:25.987Z,0.00
2022-12-09T09:32:53.552Z,0.00
2022-12-09T09:35:20.798Z,0.00
2022-12-09T09:37:48.914Z,0.10
2022-12-09T09:40:16.249Z,0.00
2022-12-09T09:42:45.385Z,0.10
2022-12-09T09:45:13.907Z,0.10
2022-12-09T09:47:42.409Z,0.10
2022-12-09T09:50:18.829Z,0.20
2022-12-09T09:52:46.201Z,0.10
2022-12-09T09:55:15.287Z,0.20
2022-12-09T09:57:44.582Z,0.20
2022-12-09T10:00:15.084Z,0.20
2022-12-09T10:03:02.556Z,0.10
2022-12-09T10:05:34.909Z,0.20
2022-12-09T10:08:06.225Z,0.20
2022-12-09T10:10:39.240Z,0.20
2022-12-09T10:13:11.102Z,0.20
2022-12-09T10:15:49.651Z,0.20
2022-12-09T10:18:33.040Z,0.20
2022-12-09T10:21:00.763Z,0.20
2022-12-09T10:23:30.077Z,0.20
2022-12-09T10:25:58.390Z,0.20
2022-12-09T10:28:26.969Z,0.20
2022-12-09T10:30:54.524Z,0.20
2022-12-09T10:33:25.838Z,0.20
2022-12-09T10:35:53.464Z,0.20
2022-12-09T10:38:20.869Z,0.30
2022-12-09T10:40:49.855Z,0.30
2022-12-09T10:43:38.649Z,0.20
2022-12-09T10:46:18.383Z,0.20
2022-12-09T10:48:46.740Z,0.20
2022-12-09T10:51:17.683Z,0.20
2022-12-09T10:53:54.998Z,0.20
2022-12-09T10:56:32.487Z,0.20
2022-12-09T10:59:09.825Z,0.20
2022-12-09T11:01:55.907Z,0.20
2022-12-09T11:04:28.298Z,0.30
2022-12-09T11:07:01.368Z,0.30
2022-12-09T11:09:30.056Z,0.30
2022-12-09T11:11:57.684Z,0.40
2022-12-09T11:14:27.248Z,0.40
2022-12-09T11:16:56.314Z,0.40
2022-12-09T11:19:30.288Z,0.40
2022-12-09T11:22:12.325Z,0.50
2022-12-09T11:24:40.823Z,0.50
2022-12-09T11:27:25.003Z,0.50
2022-12-09T11:30:09.502Z,0.50
2022-12-09T11:32:53.056Z,0.50
2022-12-09T11:35:21.541Z,0.50
2022-12-09T11:37:48.643Z,0.50
2022-12-09T11:40:16.093Z,0.50
2022-12-09T11:42:43.045Z,0.50
2022-12-09T11:45:17.832Z,0.50
2022-12-09T11:50:34.331Z,0.50
2022-12-09T11:53:10.467Z,0.60
2022-12-09T11:55:37.907Z,0.60
2022-12-09T11:58:06.223Z,0.60
2022-12-09T12:00:41.145Z,0.60
2022-12-09T12:03:11.183Z,0.60
2022-12-09T12:05:42.096Z,0.60
2022-12-09T12:08:12.141Z,0.60
2022-12-09T12:10:40.160Z,0.60
2022-12-09T12:13:12.899Z,0.60
2022-12-09T12:15:58.840Z,0.60
2022-12-09T12:18:26.121Z,0.60
2022-12-09T12:21:04.846Z,0.70
2022-12-09T12:23:36.476Z,0.70
2022-12-09T12:26:18.559Z,0.70
2022-12-09T12:29:07.514Z,0.70
2022-12-09T12:31:51.366Z,0.70
2022-12-09T12:34:27.894Z,0.70
2022-12-09T12:37:15.946Z,0.70
2022-12-09T12:39:43.012Z,0.80
2022-12-09T12:42:30.819Z,0.70
2022-12-09T12:45:19.687Z,0.80
2022-12-09T12:47:49.378Z,0.80
2022-12-09T12:50:17.347Z,0.80
2022-12-09T12:53:06.684Z,0.80
2022-12-09T12:55:50.601Z,0.80
2022-12-09T12:58:36.614Z,0.80
2022-12-09T13:01:21.737Z,0.70
2022-12-09T13:04:10.169Z,0.70
2022-12-09T13:06:42.943Z,0.70
2022-12-09T13:09:25.977Z,0.80
2022-12-09T13:12:00.784Z,0.70
2022-12-09T13:14:36.824Z,0.70
2022-12-09T13:17:05.549Z,0.70
2022-12-09T13:19:41.151Z,0.70
2022-12-09T13:22:14.070Z,0.70
2022-12-09T13:24:43.279Z,0.70
2022-12-09T13:27:26.887Z,0.70
2022-12-09T13:30:05.683Z,0.70
2022-12-09T13:32:33.373Z,0.70
2022-12-09T13:35:11.936Z,0.70
2022-12-09T13:37:39.052Z,0.70
2022-12-09T13:40:27.796Z,0.70
2022-12-09T13:43:04.667Z,0.70
2022-12-09T13:45:46.974Z,0.70
2022-12-09T13:48:17.372Z,0.70
2022-12-09T13:51:03.436Z,0.70
2022-12-09T13:53:34.321Z,0.70
2022-12-09T13:56:02.162Z,0.80
2022-12-09T13:58:38.194Z,0.70
2022-12-09T14:01:11.288Z,0.70
2022-12-09T14:03:50.541Z,0.70
2022-12-09T14:06:19.837Z,0.70
2022-12-09T14:08:47.985Z,0.70
2022-12-09T14:11:39.176Z,0.70
2022-12-09T14:14:24.886Z,0.70
2022-12-09T14:16:55.489Z,0.70
2022-12-09T14:19:25.453Z,0.60
2022-12-09T14:22:17.881Z,0.70
2022-12-09T14:24:44.847Z,0.60
2022-12-09T14:27:13.233Z,0.60
2022-12-09T14:29:44.224Z,0.60
2022-12-09T14:32:23.559Z,0.60
2022-12-09T14:34:59.890Z,0.60
2022-12-09T14:37:33.150Z,0.60
2022-12-09T14:40:03.226Z,0.60
2022-12-09T14:42:30.246Z,0.60
2022-12-09T14:45:01.315Z,0.60
2022-12-09T14:47:29.672Z,0.60
2022-12-09T14:50:04.070Z,0.70
2022-12-09T14:52:31.629Z,0.70
2022-12-09T14:54:59.339Z,0.70
2022-12-09T14:57:34.236Z,0.70
2022-12-09T15:00:01.238Z,0.70
2022-12-09T15:02:31.924Z,0.60
2022-12-09T15:05:02.708Z,0.60
2022-12-09T15:07:30.814Z,0.60
2022-12-09T15:10:02.202Z,0.60
2022-12-09T15:12:30.343Z,0.60
2022-12-09T15:15:04.126Z,0.60
2022-12-09T15:17:33.020Z,0.60
2022-12-09T15:20:01.310Z,0.70
2022-12-09T15:22:29.436Z,0.70
2022-12-09T15:24:56.421Z,0.70
2022-12-09T15:27:23.965Z,0.70
2022-12-09T15:29:51.079Z,0.70
2022-12-09T15:32:29.016Z,0.70
2022-12-09T15:34:56.168Z,0.70
2022-12-09T15:37:24.886Z,0.70
2022-12-09T15:39:53.874Z,0.70
2022-12-09T15:42:25.788Z,0.70
2022-12-09T15:45:12.088Z,0.70
2022-12-09T15:47:40.517Z,0.70
2022-12-09T15:50:17.945Z,0.70
2022-12-09T15:52:46.850Z,0.70
2022-12-09T15:55:14.442Z,0.70
2022-12-09T15:57:41.545Z,0.70
2022-12-09T16:00:08.888Z,0.70
2022-12-09T16:02:37.803Z,0.70
2022-12-09T16:05:05.702Z,0.70
2022-12-09T16:07:32.778Z,0.70
2022-12-09T16:10:05.036Z,0.70
2022-12-09T16:12:35.279Z,0.70
2022-12-09T16:15:02.916Z,0.70
2022-12-09T16:17:50.255Z,0.70
2022-12-09T16:20:21.467Z,0.70
2022-12-09T16:22:49.034Z,0.70
2022-12-09T16:25:22.897Z,0.70
2022-12-09T16:27:50.881Z,0.70
2022-12-09T16:30:21.802Z,0.70
2022-12-09T16:32:52.306Z,0.70
2022-12-09T16:35:27.114Z,0.70
2022-12-09T16:37:54.296Z,0.70
2022-12-09T16:40:21.361Z,0.70
2022-12-09T16:42:48.645Z,0.70
2022-12-09T16:45:18.634Z,0.70
2022-12-09T16:47:45.682Z,0.70
2022-12-09T16:50:12.823Z,0.70
2022-12-09T16:52:39.820Z,0.70
2022-12-09T16:55:09.487Z,0.80
2022-12-09T16:57:36.505Z,0.70
2022-12-09T17:00:03.829Z,0.80
2022-12-09T17:02:32.621Z,0.80
2022-12-09T17:05:00.504Z,0.70
2022-12-09T17:07:27.745Z,0.80
2022-12-09T17:09:55.023Z,0.80
2022-12-09T17:12:22.298Z,0.80
2022-12-09T17:14:49.917Z,0.70
2022-12-09T17:17:16.944Z,0.70
2022-12-09T17:19:44.185Z,0.80
2022-12-09T17:22:11.456Z,0.70
2022-12-09T17:24:38.714Z,0.80
2022-12-09T17:27:05.896Z,0.80
2022-12-09T17:29:32.945Z,0.80
2022-12-09T17:31:59.948Z,0.80
2022-12-09T17:34:26.988Z,0.80
2022-12-09T17:36:55.065Z,0.70
2022-12-09T17:39:24.665Z,0.80
2022-12-09T17:41:51.744Z,0.80
2022-12-09T17:44:21.180Z,0.80
2022-12-09T17:46:49.871Z,0.80
2022-12-09T17:49:17.601Z,0.80
2022-12-09T17:51:44.757Z,0.80
2022-12-09T17:54:11.777Z,0.80
2022-12-09T17:56:38.914Z,0.80
2022-12-09T17:59:12.797Z,0.80
2022-12-09T18:01:41.136Z,0.80
2022-12-09T18:04:12.752Z,0.80
2022-12-09T18:06:40.862Z,0.80
2022-12-09T18:09:09.820Z,0.80
2022-12-09T18:11:36.941Z,0.80
2022-12-09T18:14:04.211Z,0.80
2022-12-09T18:16:31.400Z,0.80
2022-12-09T18:19:02.846Z,0.80
2022-12-09T18:21:30.094Z,0.80
2022-12-09T18:23:59.545Z,0.80
2022-12-09T18:26:30.653Z,0.80
2022-12-09T18:29:00.454Z,0.80
2022-12-09T18:31:27.942Z,0.80
2022-12-09T18:33:55.313Z,0.80
2022-12-09T18:36:25.727Z,0.90
2022-12-09T18:38:53.814Z,0.80
2022-12-09T18:41:21.781Z,0.90
2022-12-09T18:43:59.642Z,0.90
2022-12-09T18:46:27.726Z,0.90
2022-12-09T18:48:55.533Z,0.90
2022-12-09T18:51:22.490Z,0.90
2022-12-09T18:53:49.485Z,0.90
2022-12-09T18:56:16.517Z,0.90
2022-12-09T18:59:05.284Z,0.90
2022-12-09T19:01:30.838Z,0.90
2022-12-09T19:03:58.692Z,0.90
2022-12-09T19:06:26.482Z,0.90
2022-12-09T19:08:55.847Z,0.90
2022-12-09T19:11:23.948Z,0.90
2022-12-09T19:13:50.928Z,0.90
2022-12-09T19:16:18.089Z,0.90
2022-12-09T19:18:45.233Z,0.90
2022-12-09T19:21:13.040Z,0.90
2022-12-09T19:23:40.737Z,0.90
2022-12-09T19:26:14.269Z,0.90
2022-12-09T19:28:46.111Z,0.90
2022-12-09T19:31:14.455Z,0.90
2022-12-09T19:33:41.878Z,0.90
2022-12-09T19:36:09.265Z,0.90
2022-12-09T19:38:36.217Z,0.90
2022-12-09T19:41:04.388Z,0.90
2022-12-09T19:43:31.441Z,0.90
2022-12-09T19:46:02.289Z,0.90
2022-12-09T19:48:29.319Z,0.90
2022-12-09T19:50:56.281Z,0.90
2022-12-09T19:53:23.256Z,0.90
2022-12-09T19:55:50.264Z,0.90
2022-12-09T19:58:17.333Z,1.00
2022-12-09T20:00:44.291Z,0.90
2022-12-09T20:03:11.351Z,0.90
2022-12-09T20:05:46.244Z,0.90
2022-12-09T20:08:13.250Z,1.00
2022-12-09T20:10:46.523Z,1.00
2022-12-09T20:13:16.692Z,0.90
2022-12-09T20:15:43.640Z,1.00
2022-12-09T20:18:10.696Z,1.00
2022-12-09T20:20:37.713Z,1.00
2022-12-09T20:23:04.823Z,1.00
2022-12-09T20:25:35.424Z,0.90
2022-12-09T20:28:02.931Z,0.90
2022-12-09T20:30:29.971Z,0.90
2022-12-09T20:32:57.008Z,0.90
2022-12-09T20:35:24.049Z,0.90
2022-12-09T20:37:51.034Z,0.90
2022-12-09T20:40:18.044Z,1.00
2022-12-09T20:42:45.013Z,0.90
2022-12-09T20:45:12.000Z,0.90
2022-12-09T20:47:38.993Z,1.00
2022-12-09T20:50:06.496Z,0.90
2022-12-09T20:52:33.786Z,1.00
2022-12-09T20:55:00.755Z,0.90
2022-12-09T20:57:27.764Z,1.00
2022-12-09T20:59:54.733Z,1.00
2022-12-09T21:02:21.701Z,1.00
2022-12-09T21:04:48.745Z,1.00
2022-12-09T21:07:16.718Z,1.00
2022-12-09T21:09:45.076Z,1.00
2022-12-09T21:12:12.248Z,1.00
2022-12-09T21:14:39.257Z,1.00
2022-12-09T21:17:06.254Z,1.00
2022-12-09T21:19:34.182Z,1.00
2022-12-09T21:22:01.225Z,1.00
2022-12-09T21:24:28.575Z,1.00
2022-12-09T21:26:57.061Z,1.00
2022-12-09T21:29:29.852Z,1.00
2022-12-09T21:31:58.911Z,1.00
2022-12-09T21:34:27.079Z,1.00
2022-12-09T21:36:54.106Z,1.00
2022-12-09T21:39:21.107Z,1.00
2022-12-09T21:41:48.083Z,1.00
2022-12-09T21:44:16.237Z,1.00
2022-12-09T21:46:43.345Z,1.00
2022-12-09T21:49:10.534Z,1.00
2022-12-09T21:51:37.559Z,1.00
2022-12-09T21:54:04.657Z,1.00
2022-12-09T21:56:32.604Z,1.00
2022-12-09T21:58:59.666Z,1.00
2022-12-09T22:01:27.843Z,1.00
2022-12-09T22:03:55.235Z,1.10
2022-12-09T22:06:22.362Z,1.10
2022-12-09T22:08:49.373Z,1.10
2022-12-09T22:11:20.680Z,1.10
2022-12-09T22:13:47.648Z,1.10
2022-12-09T22:16:16.245Z,1.10
2022-12-09T22:18:43.344Z,1.10
2022-12-09T22:21:27.753Z,1.10
2022-12-09T22:23:56.116Z,1.10
2022-12-09T22:26:23.278Z,1.10
2022-12-09T22:28:50.502Z,1.10
2022-12-09T22:31:18.403Z,1.10
2022-12-09T22:33:45.502Z,1.10
2022-12-09T22:36:12.891Z,1.10
2022-12-09T22:38:40.383Z,1.00
2022-12-09T22:41:08.496Z,1.10
2022-12-09T22:43:38.151Z,1.10
2022-12-09T22:46:09.550Z,1.10
2022-12-09T22:48:36.680Z,1.10
2022-12-09T22:51:04.532Z,1.10
2022-12-09T22:53:31.517Z,1.10
2022-12-09T22:55:58.497Z,1.10
2022-12-09T22:58:25.633Z,1.10
2022-12-09T23:00:52.876Z,1.10
2022-12-09T23:03:19.981Z,1.10
2022-12-09T23:05:46.973Z,1.10
2022-12-09T23:08:14.073Z,1.10
2022-12-09T23:10:41.119Z,1.10
2022-12-09T23:13:08.092Z,1.10
2022-12-09T23:15:35.114Z,1.10
2022-12-09T23:18:02.356Z,1.10
2022-12-09T23:20:29.402Z,1.10
2022-12-09T23:22:56.373Z,1.10
2022-12-09T23:25:23.324Z,1.10
2022-12-09T23:27:50.321Z,1.10
2022-12-09T23:30:17.356Z,1.10
2022-12-09T23:32:44.315Z,1.10
2022-12-09T23:35:11.336Z,1.10
2022-12-09T23:37:38.295Z,1.10
2022-12-09T23:40:05.746Z,1.10
2022-12-09T23:42:32.949Z,1.10
2022-12-09T23:44:59.923Z,1.10
2022-12-09T23:47:26.896Z,1.10
2022-12-09T23:49:54.532Z,1.10
2022-12-09T23:52:21.494Z,1.10
2022-12-09T23:54:48.453Z,1.10
2022-12-09T23:57:15.461Z,1.10
2022-12-09T23:59:42.476Z,1.10
